Lilongwe, Malawi
Current Conditions -  °F | °C
As of 10:00 PM on Tuesday 25 Nov 2014 (Local Time) from FVHA Reporting Station
Clear Clear  
Wind Chill: 22°   Ceiling: Unl
Heat Index: 22°   Visibility: 6mi
Dew Point:   Wind: 9mph
Humidity: 38%   Direction: 90°E
Pressure: 30.18"   Gusts: NA
Location:  13.97°S, 33.8°E
Report Text: FVHA 252000Z 09008KT CAVOK 22/07 Q1022 NOSIG
Loading
Personal Weather Stations






























Interactive Weather Map New forecast layout! Learn more

10-Day Weather Forecast

Advertisements
Track Severe Weather on mobile